sensor_id;sensor_type;location;lat;lon;timestamp;pressure;altitude;pressure_sealevel;temperature;humidity
61478;BME280;47345;52.334;10.392;2023-04-07T00:00:05;100995.18;;;4.94;59.02
61478;BME280;47345;52.334;10.392;2023-04-07T00:02:36;100991.83;;;4.94;59.19
61478;BME280;47345;52.334;10.392;2023-04-07T00:05:09;100992.58;;;4.93;59.20
61478;BME280;47345;52.334;10.392;2023-04-07T00:07:40;100991.96;;;4.94;58.86
61478;BME280;47345;52.334;10.392;2023-04-07T00:10:25;100993.02;;;4.93;59.00
61478;BME280;47345;52.334;10.392;2023-04-07T00:12:56;100993.11;;;4.92;59.14
61478;BME280;47345;52.334;10.392;2023-04-07T00:15:26;100992.86;;;4.91;59.15
61478;BME280;47345;52.334;10.392;2023-04-07T00:17:57;100992.79;;;4.89;59.21
61478;BME280;47345;52.334;10.392;2023-04-07T00:20:29;100993.16;;;4.88;59.27
61478;BME280;47345;52.334;10.392;2023-04-07T00:22:59;100994.81;;;4.86;59.49
61478;BME280;47345;52.334;10.392;2023-04-07T00:25:30;100994.26;;;4.84;59.58
61478;BME280;47345;52.334;10.392;2023-04-07T00:28:01;100997.07;;;4.83;59.65
61478;BME280;47345;52.334;10.392;2023-04-07T00:30:32;100991.68;;;4.81;59.64
61478;BME280;47345;52.334;10.392;2023-04-07T00:33:03;100987.02;;;4.79;59.65
61478;BME280;47345;52.334;10.392;2023-04-07T00:35:38;100988.88;;;4.77;59.64
61478;BME280;47345;52.334;10.392;2023-04-07T00:38:10;100986.00;;;4.73;59.58
61478;BME280;47345;52.334;10.392;2023-04-07T00:40:41;100987.89;;;4.71;59.75
61478;BME280;47345;52.334;10.392;2023-04-07T00:43:13;100988.15;;;4.68;59.84
61478;BME280;47345;52.334;10.392;2023-04-07T00:45:44;100992.06;;;4.66;59.83
61478;BME280;47345;52.334;10.392;2023-04-07T00:48:15;100986.56;;;4.63;59.78
61478;BME280;47345;52.334;10.392;2023-04-07T00:50:46;100981.38;;;4.61;59.73
61478;BME280;47345;52.334;10.392;2023-04-07T00:53:17;100973.80;;;4.57;59.53
61478;BME280;47345;52.334;10.392;2023-04-07T00:55:49;100972.65;;;4.58;59.58
61478;BME280;47345;52.334;10.392;2023-04-07T00:58:20;100974.27;;;4.56;59.54
61478;BME280;47345;52.334;10.392;2023-04-07T01:00:57;100976.56;;;4.55;59.87
61478;BME280;47345;52.334;10.392;2023-04-07T01:03:34;100976.22;;;4.53;60.02
61478;BME280;47345;52.334;10.392;2023-04-07T01:06:08;100977.70;;;4.51;59.98
61478;BME280;47345;52.334;10.392;2023-04-07T01:08:48;100979.85;;;4.49;60.02
61478;BME280;47345;52.334;10.392;2023-04-07T01:14:11;100988.73;;;4.46;60.36
61478;BME280;47345;52.334;10.392;2023-04-07T01:16:46;100977.00;;;4.43;60.49
61478;BME280;47345;52.334;10.392;2023-04-07T01:19:33;100975.08;;;4.41;60.31
61478;BME280;47345;52.334;10.392;2023-04-07T01:22:09;100970.00;;;4.38;60.31
61478;BME280;47345;52.334;10.392;2023-04-07T01:24:53;100969.75;;;4.35;60.37
61478;BME280;47345;52.334;10.392;2023-04-07T01:27:39;100970.48;;;4.33;60.55
61478;BME280;47345;52.334;10.392;2023-04-07T01:30:18;100967.28;;;4.31;60.84
61478;BME280;47345;52.334;10.392;2023-04-07T01:32:52;100967.92;;;4.28;60.74
61478;BME280;47345;52.334;10.392;2023-04-07T01:35:26;100968.54;;;4.26;60.59
61478;BME280;47345;52.334;10.392;2023-04-07T01:38:00;100970.86;;;4.24;60.59
61478;BME280;47345;52.334;10.392;2023-04-07T01:40:33;100975.55;;;4.23;60.43
61478;BME280;47345;52.334;10.392;2023-04-07T01:43:04;100977.36;;;4.21;60.09
61478;BME280;47345;52.334;10.392;2023-04-07T01:45:36;100975.21;;;4.19;60.65
61478;BME280;47345;52.334;10.392;2023-04-07T01:48:08;100975.11;;;4.18;60.37
61478;BME280;47345;52.334;10.392;2023-04-07T01:50:39;100973.48;;;4.17;60.58
61478;BME280;47345;52.334;10.392;2023-04-07T01:53:11;100968.95;;;4.13;60.80
61478;BME280;47345;52.334;10.392;2023-04-07T01:55:42;100973.05;;;4.14;60.67
61478;BME280;47345;52.334;10.392;2023-04-07T01:58:13;100973.08;;;4.12;61.08
61478;BME280;47345;52.334;10.392;2023-04-07T02:00:44;100972.72;;;4.10;61.02
61478;BME280;47345;52.334;10.392;2023-04-07T02:03:19;100973.98;;;4.08;60.78
61478;BME280;47345;52.334;10.392;2023-04-07T02:05:53;100977.39;;;4.05;60.65
61478;BME280;47345;52.334;10.392;2023-04-07T02:08:27;100976.77;;;4.02;60.95
61478;BME280;47345;52.334;10.392;2023-04-07T02:11:01;100981.72;;;4.00;60.96
61478;BME280;47345;52.334;10.392;2023-04-07T02:13:34;100981.73;;;3.98;61.09
61478;BME280;47345;52.334;10.392;2023-04-07T02:16:07;100976.91;;;3.95;61.50
61478;BME280;47345;52.334;10.392;2023-04-07T02:18:38;100978.50;;;3.94;61.24
61478;BME280;47345;52.334;10.392;2023-04-07T02:21:09;100978.61;;;3.91;61.23
61478;BME280;47345;52.334;10.392;2023-04-07T02:23:41;100978.85;;;3.89;61.34
61478;BME280;47345;52.334;10.392;2023-04-07T02:26:11;100982.60;;;3.88;61.26
61478;BME280;47345;52.334;10.392;2023-04-07T02:28:42;100978.29;;;3.85;61.50
61478;BME280;47345;52.334;10.392;2023-04-07T02:31:12;100973.64;;;3.83;61.20
61478;BME280;47345;52.334;10.392;2023-04-07T02:33:42;100976.96;;;3.80;60.88
61478;BME280;47345;52.334;10.392;2023-04-07T02:36:13;100975.87;;;3.79;60.94
61478;BME280;47345;52.334;10.392;2023-04-07T02:38:43;100975.99;;;3.78;60.85
61478;BME280;47345;52.334;10.392;2023-04-07T02:41:14;100978.34;;;3.78;61.31
61478;BME280;47345;52.334;10.392;2023-04-07T02:43:44;100980.77;;;3.77;61.19
61478;BME280;47345;52.334;10.392;2023-04-07T02:46:14;100984.95;;;3.77;61.20
61478;BME280;47345;52.334;10.392;2023-04-07T02:48:45;100981.09;;;3.76;61.22
61478;BME280;47345;52.334;10.392;2023-04-07T02:51:15;100981.90;;;3.75;61.12
61478;BME280;47345;52.334;10.392;2023-04-07T02:53:46;100981.45;;;3.74;61.04
61478;BME280;47345;52.334;10.392;2023-04-07T02:56:17;100981.17;;;3.73;61.18
61478;BME280;47345;52.334;10.392;2023-04-07T02:58:47;100982.27;;;3.71;61.22
61478;BME280;47345;52.334;10.392;2023-04-07T03:01:18;100979.02;;;3.71;61.31
61478;BME280;47345;52.334;10.392;2023-04-07T03:03:48;100981.05;;;3.69;61.38
61478;BME280;47345;52.334;10.392;2023-04-07T03:06:19;100980.16;;;3.67;61.59
61478;BME280;47345;52.334;10.392;2023-04-07T03:08:51;100977.64;;;3.65;61.54
61478;BME280;47345;52.334;10.392;2023-04-07T03:11:21;100984.18;;;3.63;61.51
61478;BME280;47345;52.334;10.392;2023-04-07T03:13:51;100984.66;;;3.61;61.17
61478;BME280;47345;52.334;10.392;2023-04-07T03:16:23;100987.34;;;3.60;61.58
61478;BME280;47345;52.334;10.392;2023-04-07T03:18:53;100985.82;;;3.57;61.06
61478;BME280;47345;52.334;10.392;2023-04-07T03:21:24;100988.21;;;3.57;61.61
61478;BME280;47345;52.334;10.392;2023-04-07T03:23:56;100985.25;;;3.54;61.22
61478;BME280;47345;52.334;10.392;2023-04-07T03:26:27;100988.04;;;3.53;61.42
61478;BME280;47345;52.334;10.392;2023-04-07T03:28:58;100983.69;;;3.51;61.01
61478;BME280;47345;52.334;10.392;2023-04-07T03:31:29;100982.67;;;3.51;61.28
61478;BME280;47345;52.334;10.392;2023-04-07T03:33:59;100982.77;;;3.50;60.76
61478;BME280;47345;52.334;10.392;2023-04-07T03:36:30;100981.36;;;3.49;60.88
61478;BME280;47345;52.334;10.392;2023-04-07T03:39:01;100981.68;;;3.48;61.41
61478;BME280;47345;52.334;10.392;2023-04-07T03:41:31;100983.67;;;3.48;61.42
61478;BME280;47345;52.334;10.392;2023-04-07T03:44:02;100983.24;;;3.47;61.38
61478;BME280;47345;52.334;10.392;2023-04-07T03:46:32;100980.09;;;3.46;61.61
61478;BME280;47345;52.334;10.392;2023-04-07T03:49:03;100986.30;;;3.45;61.32
61478;BME280;47345;52.334;10.392;2023-04-07T03:51:33;100983.96;;;3.43;61.01
61478;BME280;47345;52.334;10.392;2023-04-07T03:54:04;100984.65;;;3.42;61.28
61478;BME280;47345;52.334;10.392;2023-04-07T03:56:35;100985.98;;;3.41;60.90
61478;BME280;47345;52.334;10.392;2023-04-07T03:59:06;100986.33;;;3.39;60.93
61478;BME280;47345;52.334;10.392;2023-04-07T04:01:37;100980.91;;;3.36;60.71
61478;BME280;47345;52.334;10.392;2023-04-07T04:04:07;100987.16;;;3.35;61.12
61478;BME280;47345;52.334;10.392;2023-04-07T04:06:39;100989.05;;;3.32;61.09
61478;BME280;47345;52.334;10.392;2023-04-07T04:09:09;100988.93;;;3.30;61.18
61478;BME280;47345;52.334;10.392;2023-04-07T04:11:40;100992.96;;;3.25;61.31
61478;BME280;47345;52.334;10.392;2023-04-07T04:14:10;100997.50;;;3.21;61.32
61478;BME280;47345;52.334;10.392;2023-04-07T04:16:41;101000.16;;;3.16;61.36
61478;BME280;47345;52.334;10.392;2023-04-07T04:19:11;101000.63;;;3.13;61.74
61478;BME280;47345;52.334;10.392;2023-04-07T04:21:41;101001.38;;;3.07;61.88
61478;BME280;47345;52.334;10.392;2023-04-07T04:24:12;101007.87;;;3.02;61.66
61478;BME280;47345;52.334;10.392;2023-04-07T04:26:43;101007.58;;;2.98;62.09
61478;BME280;47345;52.334;10.392;2023-04-07T04:29:13;101006.48;;;2.94;62.29
61478;BME280;47345;52.334;10.392;2023-04-07T04:31:44;101006.40;;;2.93;62.27
61478;BME280;47345;52.334;10.392;2023-04-07T04:34:15;101006.70;;;2.92;62.23
61478;BME280;47345;52.334;10.392;2023-04-07T04:36:45;101007.33;;;2.91;62.39
61478;BME280;47345;52.334;10.392;2023-04-07T04:39:17;101007.90;;;2.88;62.61
61478;BME280;47345;52.334;10.392;2023-04-07T04:41:47;101012.34;;;2.86;62.61
61478;BME280;47345;52.334;10.392;2023-04-07T04:44:18;101012.89;;;2.82;62.88
61478;BME280;47345;52.334;10.392;2023-04-07T04:46:49;101012.77;;;2.77;63.06
61478;BME280;47345;52.334;10.392;2023-04-07T04:49:19;101014.69;;;2.74;63.32
61478;BME280;47345;52.334;10.392;2023-04-07T04:51:50;101016.46;;;2.71;63.05
61478;BME280;47345;52.334;10.392;2023-04-07T04:54:21;101016.35;;;2.68;63.03
61478;BME280;47345;52.334;10.392;2023-04-07T04:56:51;101016.70;;;2.66;63.39
61478;BME280;47345;52.334;10.392;2023-04-07T04:59:22;101017.27;;;2.64;63.31
61478;BME280;47345;52.334;10.392;2023-04-07T05:01:52;101018.22;;;2.62;63.67
61478;BME280;47345;52.334;10.392;2023-04-07T05:04:23;101018.77;;;2.60;63.83
61478;BME280;47345;52.334;10.392;2023-04-07T05:06:54;101026.59;;;2.59;63.55
61478;BME280;47345;52.334;10.392;2023-04-07T05:09:24;101023.28;;;2.60;63.87
61478;BME280;47345;52.334;10.392;2023-04-07T05:11:55;101025.58;;;2.62;63.90
61478;BME280;47345;52.334;10.392;2023-04-07T05:14:26;101026.05;;;2.64;63.80
61478;BME280;47345;52.334;10.392;2023-04-07T05:16:56;101026.36;;;2.67;64.08
61478;BME280;47345;52.334;10.392;2023-04-07T05:19:28;101023.61;;;2.71;64.54
61478;BME280;47345;52.334;10.392;2023-04-07T05:21:59;101027.52;;;2.74;64.25
61478;BME280;47345;52.334;10.392;2023-04-07T05:24:29;101031.65;;;2.76;64.39
61478;BME280;47345;52.334;10.392;2023-04-07T05:27:00;101034.56;;;2.75;64.00
61478;BME280;47345;52.334;10.392;2023-04-07T05:29:31;101036.23;;;2.75;63.81
61478;BME280;47345;52.334;10.392;2023-04-07T05:32:03;101040.09;;;2.72;64.05
61478;BME280;47345;52.334;10.392;2023-04-07T05:34:34;101044.52;;;2.69;63.82
61478;BME280;47345;52.334;10.392;2023-04-07T05:37:05;101039.66;;;2.65;63.96
61478;BME280;47345;52.334;10.392;2023-04-07T05:39:36;101046.20;;;2.63;63.91
61478;BME280;47345;52.334;10.392;2023-04-07T05:42:07;101041.29;;;2.60;64.39
61478;BME280;47345;52.334;10.392;2023-04-07T05:44:37;101041.82;;;2.62;64.79
61478;BME280;47345;52.334;10.392;2023-04-07T05:47:07;101042.97;;;2.64;64.63
61478;BME280;47345;52.334;10.392;2023-04-07T05:49:39;101042.29;;;2.68;64.67
61478;BME280;47345;52.334;10.392;2023-04-07T05:52:14;101046.40;;;2.70;64.20
61478;BME280;47345;52.334;10.392;2023-04-07T05:54:45;101050.36;;;2.72;64.29
61478;BME280;47345;52.334;10.392;2023-04-07T05:57:16;101054.71;;;2.75;64.24
61478;BME280;47345;52.334;10.392;2023-04-07T05:59:46;101055.79;;;2.77;64.55
61478;BME280;47345;52.334;10.392;2023-04-07T06:02:17;101059.82;;;2.80;64.74
61478;BME280;47345;52.334;10.392;2023-04-07T06:04:48;101060.21;;;2.82;64.58
61478;BME280;47345;52.334;10.392;2023-04-07T06:07:18;101057.70;;;2.84;64.13
61478;BME280;47345;52.334;10.392;2023-04-07T06:09:49;101059.39;;;2.87;64.29
61478;BME280;47345;52.334;10.392;2023-04-07T06:12:19;101056.68;;;2.91;64.90
61478;BME280;47345;52.334;10.392;2023-04-07T06:14:53;101059.77;;;2.94;64.55
61478;BME280;47345;52.334;10.392;2023-04-07T06:17:24;101060.06;;;2.97;64.70
61478;BME280;47345;52.334;10.392;2023-04-07T06:19:55;101065.23;;;3.00;64.53
61478;BME280;47345;52.334;10.392;2023-04-07T06:22:25;101064.68;;;3.01;65.32
61478;BME280;47345;52.334;10.392;2023-04-07T06:24:56;101064.30;;;3.05;66.42
61478;BME280;47345;52.334;10.392;2023-04-07T06:27:27;101067.14;;;3.08;66.76
61478;BME280;47345;52.334;10.392;2023-04-07T06:29:57;101066.35;;;3.10;66.90
61478;BME280;47345;52.334;10.392;2023-04-07T06:32:28;101068.69;;;3.14;67.08
61478;BME280;47345;52.334;10.392;2023-04-07T06:34:59;101070.36;;;3.19;67.22
61478;BME280;47345;52.334;10.392;2023-04-07T06:37:29;101069.95;;;3.25;67.36
61478;BME280;47345;52.334;10.392;2023-04-07T06:40:00;101072.79;;;3.33;66.93
61478;BME280;47345;52.334;10.392;2023-04-07T06:42:30;101072.85;;;3.42;66.87
61478;BME280;47345;52.334;10.392;2023-04-07T06:45:00;101071.08;;;3.49;67.17
61478;BME280;47345;52.334;10.392;2023-04-07T06:47:31;101072.65;;;3.60;66.81
61478;BME280;47345;52.334;10.392;2023-04-07T06:50:02;101076.02;;;3.70;66.42
61478;BME280;47345;52.334;10.392;2023-04-07T06:52:33;101075.30;;;3.79;66.20
61478;BME280;47345;52.334;10.392;2023-04-07T06:55:04;101074.42;;;3.87;65.75
61478;BME280;47345;52.334;10.392;2023-04-07T06:57:35;101076.60;;;3.96;65.22
61478;BME280;47345;52.334;10.392;2023-04-07T07:00:09;101075.07;;;4.07;64.09
61478;BME280;47345;52.334;10.392;2023-04-07T07:02:40;101078.64;;;4.17;64.17
61478;BME280;47345;52.334;10.392;2023-04-07T07:05:10;101081.44;;;4.29;63.79
61478;BME280;47345;52.334;10.392;2023-04-07T07:07:41;101080.41;;;4.41;63.65
61478;BME280;47345;52.334;10.392;2023-04-07T07:10:12;101082.31;;;4.52;63.39
61478;BME280;47345;52.334;10.392;2023-04-07T07:12:43;101080.94;;;4.64;63.06
61478;BME280;47345;52.334;10.392;2023-04-07T07:15:13;101079.58;;;4.74;62.45
61478;BME280;47345;52.334;10.392;2023-04-07T07:17:44;101079.00;;;4.82;62.21
61478;BME280;47345;52.334;10.392;2023-04-07T07:20:15;101080.24;;;4.93;62.31
61478;BME280;47345;52.334;10.392;2023-04-07T07:22:45;101081.40;;;5.03;61.46
61478;BME280;47345;52.334;10.392;2023-04-07T07:25:16;101082.17;;;5.13;61.38
61478;BME280;47345;52.334;10.392;2023-04-07T07:27:47;101082.76;;;5.25;61.42
61478;BME280;47345;52.334;10.392;2023-04-07T07:30:22;101083.56;;;5.34;61.51
61478;BME280;47345;52.334;10.392;2023-04-07T07:32:53;101087.42;;;5.44;60.26
61478;BME280;47345;52.334;10.392;2023-04-07T07:35:24;101087.86;;;5.55;59.55
61478;BME280;47345;52.334;10.392;2023-04-07T07:37:54;101089.08;;;5.66;59.30
61478;BME280;47345;52.334;10.392;2023-04-07T07:40:25;101092.70;;;5.77;59.28
61478;BME280;47345;52.334;10.392;2023-04-07T07:42:56;101095.21;;;5.89;58.28
61478;BME280;47345;52.334;10.392;2023-04-07T07:45:26;101093.34;;;6.00;58.28
61478;BME280;47345;52.334;10.392;2023-04-07T07:47:57;101096.83;;;6.08;58.33
61478;BME280;47345;52.334;10.392;2023-04-07T07:50:28;101103.19;;;6.18;57.42
61478;BME280;47345;52.334;10.392;2023-04-07T07:52:59;101104.64;;;6.29;56.09
61478;BME280;47345;52.334;10.392;2023-04-07T07:55:30;101110.14;;;6.40;56.35
61478;BME280;47345;52.334;10.392;2023-04-07T07:58:00;101111.29;;;6.49;55.91
61478;BME280;47345;52.334;10.392;2023-04-07T08:00:31;101112.60;;;6.57;55.87
61478;BME280;47345;52.334;10.392;2023-04-07T08:03:01;101114.48;;;6.63;56.06
61478;BME280;47345;52.334;10.392;2023-04-07T08:05:33;101117.98;;;6.69;55.73
61478;BME280;47345;52.334;10.392;2023-04-07T08:08:04;101121.08;;;6.76;55.76
61478;BME280;47345;52.334;10.392;2023-04-07T08:10:34;101124.73;;;6.84;55.05
61478;BME280;47345;52.334;10.392;2023-04-07T08:13:05;101123.48;;;6.93;54.28
61478;BME280;47345;52.334;10.392;2023-04-07T08:15:37;101122.40;;;7.03;53.96
61478;BME280;47345;52.334;10.392;2023-04-07T08:18:09;101123.15;;;7.12;53.95
61478;BME280;47345;52.334;10.392;2023-04-07T08:20:40;101123.91;;;7.20;54.35
61478;BME280;47345;52.334;10.392;2023-04-07T08:23:10;101126.65;;;7.24;54.29
61478;BME280;47345;52.334;10.392;2023-04-07T08:25:41;101120.95;;;7.32;54.64
61478;BME280;47345;52.334;10.392;2023-04-07T08:28:11;101127.80;;;7.40;54.02
61478;BME280;47345;52.334;10.392;2023-04-07T08:30:42;101127.98;;;7.46;53.70
61478;BME280;47345;52.334;10.392;2023-04-07T08:33:12;101127.08;;;7.49;53.26
61478;BME280;47345;52.334;10.392;2023-04-07T08:35:43;101128.86;;;7.54;52.49
61478;BME280;47345;52.334;10.392;2023-04-07T08:38:18;101129.10;;;7.62;52.46
61478;BME280;47345;52.334;10.392;2023-04-07T08:40:51;101135.83;;;7.72;53.02
61478;BME280;47345;52.334;10.392;2023-04-07T08:43:22;101132.83;;;7.77;52.64
61478;BME280;47345;52.334;10.392;2023-04-07T08:45:56;101132.36;;;7.82;51.70
61478;BME280;47345;52.334;10.392;2023-04-07T08:48:29;101134.13;;;7.92;51.40
61478;BME280;47345;52.334;10.392;2023-04-07T08:51:05;101134.38;;;8.01;50.62
61478;BME280;47345;52.334;10.392;2023-04-07T08:53:42;101137.11;;;8.08;50.47
61478;BME280;47345;52.334;10.392;2023-04-07T08:56:13;101141.73;;;8.16;50.06
61478;BME280;47345;52.334;10.392;2023-04-07T08:58:44;101138.24;;;8.22;49.60
61478;BME280;47345;52.334;10.392;2023-04-07T09:01:15;101140.52;;;8.27;50.09
61478;BME280;47345;52.334;10.392;2023-04-07T09:03:46;101139.83;;;8.31;48.70
61478;BME280;47345;52.334;10.392;2023-04-07T09:06:18;101137.13;;;8.32;49.00
61478;BME280;47345;52.334;10.392;2023-04-07T09:08:49;101141.25;;;8.36;48.19
61478;BME280;47345;52.334;10.392;2023-04-07T09:11:19;101141.25;;;8.40;48.16
61478;BME280;47345;52.334;10.392;2023-04-07T09:13:51;101139.84;;;8.46;48.39
61478;BME280;47345;52.334;10.392;2023-04-07T09:16:21;101138.27;;;8.51;49.04
61478;BME280;47345;52.334;10.392;2023-04-07T09:18:53;101146.57;;;8.58;47.97
61478;BME280;47345;52.334;10.392;2023-04-07T09:21:24;101147.54;;;8.64;47.02
61478;BME280;47345;52.334;10.392;2023-04-07T09:23:55;101147.67;;;8.67;47.17
61478;BME280;47345;52.334;10.392;2023-04-07T09:26:28;101149.92;;;8.71;46.08
61478;BME280;47345;52.334;10.392;2023-04-07T09:29:00;101150.15;;;8.77;46.55
61478;BME280;47345;52.334;10.392;2023-04-07T09:31:45;101145.76;;;8.80;46.13
61478;BME280;47345;52.334;10.392;2023-04-07T09:34:27;101149.96;;;8.86;46.89
61478;BME280;47345;52.334;10.392;2023-04-07T09:36:57;101143.60;;;8.88;47.12
61478;BME280;47345;52.334;10.392;2023-04-07T09:39:28;101144.04;;;8.89;46.88
61478;BME280;47345;52.334;10.392;2023-04-07T09:42:06;101145.42;;;8.91;47.06
61478;BME280;47345;52.334;10.392;2023-04-07T09:44:41;101149.32;;;8.94;46.97
61478;BME280;47345;52.334;10.392;2023-04-07T09:47:13;101148.58;;;8.95;46.73
61478;BME280;47345;52.334;10.392;2023-04-07T09:49:51;101151.70;;;8.96;47.03
61478;BME280;47345;52.334;10.392;2023-04-07T09:52:24;101152.07;;;8.98;46.75
61478;BME280;47345;52.334;10.392;2023-04-07T09:54:56;101148.85;;;8.99;46.57
61478;BME280;47345;52.334;10.392;2023-04-07T09:57:28;101149.25;;;9.01;46.96
61478;BME280;47345;52.334;10.392;2023-04-07T09:59:59;101146.14;;;9.01;46.65
61478;BME280;47345;52.334;10.392;2023-04-07T10:02:30;101151.30;;;9.01;46.97
61478;BME280;47345;52.334;10.392;2023-04-07T10:05:02;101149.23;;;9.03;46.42
61478;BME280;47345;52.334;10.392;2023-04-07T10:07:32;101145.00;;;9.07;46.76
61478;BME280;47345;52.334;10.392;2023-04-07T10:10:05;101143.15;;;9.12;46.86
61478;BME280;47345;52.334;10.392;2023-04-07T10:12:37;101147.32;;;9.19;47.79
61478;BME280;47345;52.334;10.392;2023-04-07T10:15:12;101148.11;;;9.24;47.47
61478;BME280;47345;52.334;10.392;2023-04-07T10:17:46;101147.02;;;9.32;47.86
61478;BME280;47345;52.334;10.392;2023-04-07T10:20:19;101144.98;;;9.35;48.27
61478;BME280;47345;52.334;10.392;2023-04-07T10:22:51;101144.92;;;9.40;47.70
61478;BME280;47345;52.334;10.392;2023-04-07T10:25:23;101138.56;;;9.44;47.77
61478;BME280;47345;52.334;10.392;2023-04-07T10:27:57;101145.08;;;9.52;46.99
61478;BME280;47345;52.334;10.392;2023-04-07T10:30:30;101144.25;;;9.60;47.59
61478;BME280;47345;52.334;10.392;2023-04-07T10:33:01;101143.75;;;9.64;47.06
61478;BME280;47345;52.334;10.392;2023-04-07T10:36:02;101147.30;;;9.72;45.81
61478;BME280;47345;52.334;10.392;2023-04-07T10:38:34;101145.70;;;9.80;45.38
61478;BME280;47345;52.334;10.392;2023-04-07T10:41:34;101150.48;;;9.82;45.20
61478;BME280;47345;52.334;10.392;2023-04-07T10:44:05;101151.36;;;9.85;45.90
61478;BME280;47345;52.334;10.392;2023-04-07T10:47:05;101149.19;;;9.87;44.56
61478;BME280;47345;52.334;10.392;2023-04-07T10:49:36;101152.83;;;9.88;46.05
61478;BME280;47345;52.334;10.392;2023-04-07T10:52:25;101150.73;;;9.92;46.44
61478;BME280;47345;52.334;10.392;2023-04-07T10:55:33;101145.56;;;9.93;46.56
61478;BME280;47345;52.334;10.392;2023-04-07T10:58:22;101149.41;;;9.94;44.43
61478;BME280;47345;52.334;10.392;2023-04-07T11:01:17;101147.95;;;9.97;44.24
61478;BME280;47345;52.334;10.392;2023-04-07T11:03:58;101149.08;;;9.99;43.72
61478;BME280;47345;52.334;10.392;2023-04-07T11:06:30;101147.08;;;10.04;45.26
61478;BME280;47345;52.334;10.392;2023-04-07T11:09:01;101143.63;;;10.05;45.19
61478;BME280;47345;52.334;10.392;2023-04-07T11:11:39;101139.23;;;10.07;45.36
61478;BME280;47345;52.334;10.392;2023-04-07T11:14:11;101135.58;;;10.08;44.80
61478;BME280;47345;52.334;10.392;2023-04-07T11:16:55;101141.87;;;10.12;45.30
61478;BME280;47345;52.334;10.392;2023-04-07T11:19:26;101139.81;;;10.15;44.45
61478;BME280;47345;52.334;10.392;2023-04-07T11:22:13;101139.17;;;10.17;45.45
61478;BME280;47345;52.334;10.392;2023-04-07T11:24:58;101143.23;;;10.20;44.29
61478;BME280;47345;52.334;10.392;2023-04-07T11:27:29;101142.19;;;10.21;44.63
61478;BME280;47345;52.334;10.392;2023-04-07T11:30:00;101139.85;;;10.23;44.89
61478;BME280;47345;52.334;10.392;2023-04-07T11:32:31;101145.41;;;10.28;44.42
61478;BME280;47345;52.334;10.392;2023-04-07T11:35:06;101144.46;;;10.33;44.73
61478;BME280;47345;52.334;10.392;2023-04-07T11:37:37;101149.27;;;10.37;43.70
61478;BME280;47345;52.334;10.392;2023-04-07T11:40:10;101142.05;;;10.37;43.76
61478;BME280;47345;52.334;10.392;2023-04-07T11:42:42;101143.21;;;10.36;44.69
61478;BME280;47345;52.334;10.392;2023-04-07T11:45:18;101147.27;;;10.37;44.41
61478;BME280;47345;52.334;10.392;2023-04-07T11:47:49;101141.77;;;10.40;43.85
61478;BME280;47345;52.334;10.392;2023-04-07T11:50:38;101147.29;;;10.41;44.67
61478;BME280;47345;52.334;10.392;2023-04-07T11:53:09;101136.16;;;10.43;44.56
61478;BME280;47345;52.334;10.392;2023-04-07T11:55:39;101141.59;;;10.43;43.85
61478;BME280;47345;52.334;10.392;2023-04-07T11:58:11;101136.61;;;10.48;44.67
61478;BME280;47345;52.334;10.392;2023-04-07T12:00:54;101132.91;;;10.51;45.66
61478;BME280;47345;52.334;10.392;2023-04-07T12:03:25;101135.44;;;10.56;44.23
61478;BME280;47345;52.334;10.392;2023-04-07T12:05:56;101134.73;;;10.60;43.71
61478;BME280;47345;52.334;10.392;2023-04-07T12:08:39;101133.56;;;10.65;45.48
61478;BME280;47345;52.334;10.392;2023-04-07T12:11:10;101136.61;;;10.67;45.31
61478;BME280;47345;52.334;10.392;2023-04-07T12:13:41;101138.77;;;10.67;44.42
61478;BME280;47345;52.334;10.392;2023-04-07T12:16:11;101135.59;;;10.67;42.90
61478;BME280;47345;52.334;10.392;2023-04-07T12:18:42;101131.47;;;10.72;43.42
61478;BME280;47345;52.334;10.392;2023-04-07T12:21:12;101133.91;;;10.74;42.98
61478;BME280;47345;52.334;10.392;2023-04-07T12:23:43;101135.71;;;10.79;43.21
61478;BME280;47345;52.334;10.392;2023-04-07T12:26:14;101132.95;;;10.79;42.57
61478;BME280;47345;52.334;10.392;2023-04-07T12:28:44;101134.19;;;10.81;43.09
61478;BME280;47345;52.334;10.392;2023-04-07T12:31:15;101134.66;;;10.83;42.54
61478;BME280;47345;52.334;10.392;2023-04-07T12:33:45;101135.00;;;10.86;42.07
61478;BME280;47345;52.334;10.392;2023-04-07T12:36:16;101137.16;;;10.91;41.45
61478;BME280;47345;52.334;10.392;2023-04-07T12:38:46;101134.77;;;10.92;41.97
61478;BME280;47345;52.334;10.392;2023-04-07T12:41:17;101134.34;;;10.90;42.08
61478;BME280;47345;52.334;10.392;2023-04-07T12:43:48;101135.52;;;10.91;42.78
61478;BME280;47345;52.334;10.392;2023-04-07T12:46:19;101136.38;;;10.88;43.19
61478;BME280;47345;52.334;10.392;2023-04-07T12:48:49;101142.73;;;10.87;43.24
61478;BME280;47345;52.334;10.392;2023-04-07T12:51:21;101135.23;;;10.87;43.30
61478;BME280;47345;52.334;10.392;2023-04-07T12:53:51;101137.90;;;10.88;42.61
61478;BME280;47345;52.334;10.392;2023-04-07T12:56:22;101140.40;;;10.91;42.42
61478;BME280;47345;52.334;10.392;2023-04-07T12:58:53;101134.91;;;10.94;41.09
61478;BME280;47345;52.334;10.392;2023-04-07T13:01:24;101134.31;;;10.99;42.99
61478;BME280;47345;52.334;10.392;2023-04-07T13:03:55;101133.31;;;11.02;42.78
61478;BME280;47345;52.334;10.392;2023-04-07T13:06:26;101134.59;;;11.07;41.98
61478;BME280;47345;52.334;10.392;2023-04-07T13:08:57;101135.63;;;11.14;40.88
61478;BME280;47345;52.334;10.392;2023-04-07T13:11:27;101140.07;;;11.19;42.72
61478;BME280;47345;52.334;10.392;2023-04-07T13:13:58;101141.05;;;11.20;42.15
61478;BME280;47345;52.334;10.392;2023-04-07T13:16:29;101135.23;;;11.19;40.84